Burlingame, CA (94010)

5:33 AM PDT on September 01, 2014 (GMT -0700)
Burlingame | Change Station
CLOSE
Current Station
Personal Weather Station
Location: Burlingame, CA
Elevation: 400 ft
Nearby Weather Stations

Elev 400 ft 37.58 °N, 122.39 °W | Updated 8 minutes ago

Clear
Clear
60.3 °F
Feels Like 60.3 °F
N
0.0
Wind Variable Wind from NE
Gusts 0.0 mph

Today
High -- | Low -- °F
--% Chance of Precip.
Yesterday
High -- | Low -- °F
Precip. -- in
6:39 AM 7:38 PM
Waxing Crescent, 40% visible
Pressure 29.83 in
Visibility 9.0 miles
Clouds Clear
Dew Point 46 °F
Humidity 61%
Rainfall -999.00 in
Snow Depth Not available.
UV 0 out of 12
Pollen 8.40 out of 12
Air Quality Not available.
Flu Activity Not available.
METAR KSFO 011156Z 29005KT 9SM CLR 16/14 A2983 RMK AO2 SLP101 T01610144 10178 20161 58005 $

More Conditions Fewer Conditions

Pressure 29.83 in
Visibility 9.0 miles
Clouds Clear
Dew Point 46 °F
Humidity 61%
Rainfall -999.00 in
Snow Depth Not available.
UV 0 out of 12
Pollen 8.40 out of 12
Air Quality Not available.
Flu Activity Not available.
METAR KSFO 011156Z 29005KT 9SM CLR 16/14 A2983 RMK AO2 SLP101 T01610144 10178 20161 58005 $

More Conditions Fewer Conditions

10-Day Weather Forecast

Almanac

Astronomy

Sep. 01, 2014 Rise Set
Actual Time 6:39 AM PDT 7:38 PM PDT
Civil Twilight 6:13 AM PDT 8:05 PM PDT
Nautical Twilight 5:41 AM PDT 8:36 PM PDT
Astronomical Twilight 5:08 AM PDT 9:09 PM PDT
Moon 1:22 PM PDT 11:52 PM PDT
Length of Visible Light 13h 52m
Length of Day
12h 58m
Tomorrow will be 2m 20s shorter.
Waxing Crescent, 40% of the Moon is Illuminated
Today
Waxing Crescent
Sep 2
First Quarter
Sep 8
Full
Sep 15
Last Quarter
Sep 24
New

Today's Extremes

State Highs State Lows

Community

WunderPhotos

Upload Photos

1,749,199 photos uploaded!

Nearby

Air Quality

  Air Quality AQ Index Pollutant
Yesterday Good
PM2.5
Yesterday Good
OZONE
Monday Good
OZONE
Tuesday Good
OZONE
Wednesday Good
OZONE
Thursday Good
OZONE
Friday Good
OZONE

Snow Depth

Station Depth Elevation
Blue Lakes 0 in 8000 ft
Forestdale Creek 0 in 8029 ft
Echo Peak 0 in 7800 ft
Rubicon #2 0 in 7500 ft
Fallen Leaf 0 in 6300 ft

Earthquake Activity

City Distance Mag. Time & Date
Green Valley, California 48 miles 2.5 6:37 AM PDT
2014-08-31
Napa, California 46 miles 3.2 1:56 AM PDT
2014-08-31
Gonzales, California 89 miles 2.7 9:48 PM PDT
2014-08-30
Ridgemark, California 83 miles 3.4 4:32 PM PDT
2014-08-29
Minimum magnitude displayed is 2.5.

Coastal Water Temperatures

Place Temperature
No Stations Reporting

Nearby Weather Stations